createdAt,value
2019-04-04T00:01:01.891Z,33.20
2019-04-04T00:03:33.386Z,33.20
2019-04-04T00:06:04.634Z,33.20
2019-04-04T00:08:36.124Z,33.20
2019-04-04T00:11:07.673Z,33.40
2019-04-04T00:13:40.082Z,33.30
2019-04-04T00:16:12.121Z,33.30
2019-04-04T00:18:43.408Z,33.40
2019-04-04T00:21:14.725Z,33.40
2019-04-04T00:23:46.216Z,33.60
2019-04-04T00:26:21.075Z,33.60
2019-04-04T00:28:52.371Z,33.70
2019-04-04T00:31:23.639Z,33.80
2019-04-04T00:33:55.841Z,33.90
2019-04-04T00:36:27.741Z,33.90
2019-04-04T00:38:59.165Z,34.00
2019-04-04T00:41:32.025Z,34.20
2019-04-04T00:44:04.799Z,34.30
2019-04-04T00:46:37.171Z,34.40
2019-04-04T00:49:08.490Z,34.40
2019-04-04T00:51:39.789Z,34.60
2019-04-04T00:54:12.065Z,34.60
2019-04-04T00:56:44.140Z,34.80
2019-04-04T00:59:15.558Z,34.90
2019-04-04T01:01:46.747Z,35.00
2019-04-04T01:04:18.064Z,35.00
2019-04-04T01:06:49.396Z,35.10
2019-04-04T01:09:20.819Z,35.30
2019-04-04T01:11:52.427Z,35.20
2019-04-04T01:14:23.751Z,35.30
2019-04-04T01:16:55.213Z,35.40
2019-04-04T01:19:26.795Z,35.50
2019-04-04T01:21:58.083Z,35.50
2019-04-04T01:24:30.403Z,35.50
2019-04-04T01:27:01.909Z,35.60
2019-04-04T01:29:33.221Z,35.60
2019-04-04T01:32:04.605Z,35.60
2019-04-04T01:34:35.993Z,35.70
2019-04-04T01:37:07.428Z,35.90
2019-04-04T01:39:38.840Z,35.80
2019-04-04T01:42:10.297Z,35.90
2019-04-04T01:44:42.192Z,35.90
2019-04-04T01:47:14.965Z,36.10
2019-04-04T01:49:47.267Z,36.20
2019-04-04T01:52:18.666Z,36.30
2019-04-04T01:54:50.066Z,37.10
2019-04-04T01:57:21.436Z,37.30
2019-04-04T01:59:52.867Z,37.40
2019-04-04T02:02:24.406Z,37.60
2019-04-04T02:04:55.876Z,37.60
2019-04-04T02:07:29.540Z,37.70
2019-04-04T02:10:00.768Z,37.80
2019-04-04T02:12:33.527Z,37.80
2019-04-04T02:15:05.766Z,38.00
2019-04-04T02:17:37.135Z,38.00
2019-04-04T02:20:08.360Z,38.10
2019-04-04T02:22:40.299Z,38.10
2019-04-04T02:25:12.008Z,38.20
2019-04-04T02:27:43.278Z,38.30
2019-04-04T02:30:16.465Z,38.40
2019-04-04T02:32:48.835Z,39.30
2019-04-04T02:35:20.244Z,38.70
2019-04-04T02:37:55.055Z,38.70
2019-04-04T02:40:25.600Z,38.80
2019-04-04T02:42:57.072Z,39.00
2019-04-04T02:45:28.371Z,39.10
2019-04-04T02:47:59.699Z,39.20
2019-04-04T02:50:34.502Z,39.20
2019-04-04T02:53:04.496Z,39.30
2019-04-04T02:55:36.025Z,39.30
2019-04-04T02:58:07.434Z,39.40
2019-04-04T03:00:38.817Z,39.60
2019-04-04T03:03:10.239Z,39.60
2019-04-04T03:05:43.867Z,39.70
2019-04-04T03:08:15.207Z,39.80
2019-04-04T03:10:49.218Z,40.00
2019-04-04T03:13:19.525Z,40.00
2019-04-04T03:15:50.834Z,40.10
2019-04-04T03:18:22.566Z,40.10
2019-04-04T03:20:55.538Z,40.20
2019-04-04T03:23:26.935Z,40.30
2019-04-04T03:25:58.164Z,40.50
2019-04-04T03:28:31.842Z,40.60
2019-04-04T03:31:03.771Z,40.60
2019-04-04T03:33:35.723Z,40.70
2019-04-04T03:36:07.032Z,40.60
2019-04-04T03:38:38.360Z,40.80
2019-04-04T03:41:09.757Z,40.80
2019-04-04T03:43:41.196Z,40.90
2019-04-04T03:46:12.486Z,41.00
2019-04-04T03:48:43.785Z,41.00
2019-04-04T03:51:15.209Z,41.00
2019-04-04T03:53:52.658Z,41.00
2019-04-04T03:56:23.940Z,41.00
2019-04-04T03:58:55.230Z,41.10
2019-04-04T04:01:26.502Z,41.30
2019-04-04T04:03:59.640Z,41.30
2019-04-04T04:06:32.907Z,41.40
2019-04-04T04:09:13.677Z,41.50
2019-04-04T04:11:45.037Z,41.50
2019-04-04T04:14:16.309Z,41.60
2019-04-04T04:16:47.685Z,41.60
2019-04-04T04:19:18.951Z,41.70
2019-04-04T04:21:50.238Z,41.60
2019-04-04T04:24:21.578Z,41.60
2019-04-04T04:26:52.893Z,41.60
2019-04-04T04:29:24.275Z,41.50
2019-04-04T04:31:55.577Z,41.50
2019-04-04T04:34:26.820Z,41.60
2019-04-04T04:36:58.168Z,41.50
2019-04-04T04:39:29.619Z,41.50
2019-04-04T04:42:01.022Z,41.50
2019-04-04T04:44:32.417Z,41.50
2019-04-04T04:47:03.793Z,41.40
2019-04-04T04:49:35.620Z,41.50
2019-04-04T04:52:07.615Z,41.50
2019-04-04T04:54:38.986Z,41.40
2019-04-04T04:57:17.537Z,41.30
2019-04-04T04:59:44.579Z,41.30
2019-04-04T05:02:16.391Z,41.20
2019-04-04T05:04:49.629Z,41.10
2019-04-04T05:07:20.919Z,40.60
2019-04-04T05:09:52.277Z,40.70
2019-04-04T05:12:23.669Z,40.40
2019-04-04T05:14:55.420Z,40.40
2019-04-04T05:17:27.725Z,41.00
2019-04-04T05:19:59.071Z,40.10
2019-04-04T05:22:30.812Z,40.00
2019-04-04T05:25:08.298Z,40.10
2019-04-04T05:27:37.243Z,40.00
2019-04-04T05:30:09.212Z,39.90
2019-04-04T05:32:41.636Z,39.90
2019-04-04T05:35:15.118Z,39.90
2019-04-04T05:37:45.806Z,39.90
2019-04-04T05:40:17.190Z,39.80
2019-04-04T05:42:48.450Z,39.70
2019-04-04T05:45:19.847Z,39.70
2019-04-04T05:47:51.248Z,39.30
2019-04-04T05:50:22.588Z,39.10
2019-04-04T05:52:53.968Z,38.00
2019-04-04T05:55:25.185Z,37.70
2019-04-04T05:57:56.479Z,37.20
2019-04-04T06:00:28.218Z,36.90
2019-04-04T06:02:59.978Z,36.70
2019-04-04T06:05:31.879Z,36.70
2019-04-04T06:08:03.299Z,36.30
2019-04-04T06:10:34.957Z,36.30
2019-04-04T06:13:06.451Z,35.90
2019-04-04T06:15:38.213Z,35.60
2019-04-04T06:18:11.807Z,35.30
2019-04-04T06:20:43.378Z,35.00
2019-04-04T06:23:14.721Z,34.90
2019-04-04T06:25:46.066Z,34.60
2019-04-04T06:28:17.422Z,34.50
2019-04-04T06:30:48.870Z,34.10
2019-04-04T06:33:20.194Z,34.10
2019-04-04T06:35:51.525Z,33.90
2019-04-04T06:38:24.015Z,33.70
2019-04-04T06:40:56.308Z,33.10
2019-04-04T06:43:27.685Z,33.00
2019-04-04T06:45:59.164Z,32.80
2019-04-04T06:48:33.524Z,32.50
2019-04-04T06:51:03.376Z,33.20
2019-04-04T06:53:35.285Z,32.50
2019-04-04T06:56:06.614Z,32.10
2019-04-04T06:58:40.217Z,31.90
2019-04-04T07:01:11.990Z,31.80
2019-04-04T07:03:43.407Z,31.80
2019-04-04T07:06:14.947Z,31.50
2019-04-04T07:08:47.178Z,31.70
2019-04-04T07:11:21.581Z,31.50
2019-04-04T07:13:51.508Z,31.30
2019-04-04T07:16:22.835Z,31.50
2019-04-04T07:18:54.223Z,31.20
2019-04-04T07:21:25.582Z,30.50
2019-04-04T07:23:58.960Z,30.60
2019-04-04T07:26:29.967Z,30.70
2019-04-04T07:29:02.933Z,30.70
2019-04-04T07:31:38.030Z,30.70
2019-04-04T07:34:07.468Z,30.50
2019-04-04T07:36:38.688Z,30.50
2019-04-04T07:39:12.221Z,30.30
2019-04-04T07:41:45.051Z,30.20
2019-04-04T07:44:16.439Z,30.10
2019-04-04T07:46:47.750Z,30.00
2019-04-04T07:49:19.126Z,30.30
2019-04-04T07:51:50.513Z,30.50
2019-04-04T07:54:22.480Z,30.60
2019-04-04T07:56:53.777Z,30.50
2019-04-04T07:59:25.120Z,30.60
2019-04-04T08:01:56.549Z,30.30
2019-04-04T08:04:27.894Z,30.30
2019-04-04T08:06:59.233Z,30.20
2019-04-04T08:09:30.579Z,30.10
2019-04-04T08:12:01.943Z,30.10
2019-04-04T08:14:33.260Z,30.10
2019-04-04T08:17:04.576Z,30.20
2019-04-04T08:19:36.781Z,30.00
2019-04-04T08:22:09.137Z,30.00
2019-04-04T08:24:40.645Z,29.70
2019-04-04T08:27:12.897Z,29.40
2019-04-04T08:29:44.501Z,29.50
2019-04-04T08:32:15.854Z,29.20
2019-04-04T08:34:47.278Z,29.00
2019-04-04T08:37:18.594Z,28.70
2019-04-04T08:39:49.987Z,28.60
2019-04-04T08:42:21.483Z,28.90
2019-04-04T08:44:52.976Z,28.70
2019-04-04T08:47:24.609Z,28.80
2019-04-04T08:49:55.848Z,28.70
2019-04-04T08:52:27.109Z,28.80
2019-04-04T08:54:58.428Z,29.20
2019-04-04T08:57:29.791Z,29.30
2019-04-04T09:00:01.102Z,29.40
2019-04-04T09:02:34.916Z,29.50
2019-04-04T09:05:12.393Z,29.60
2019-04-04T09:07:40.038Z,29.80
2019-04-04T09:10:11.594Z,29.80
2019-04-04T09:12:42.991Z,29.60
2019-04-04T09:15:16.418Z,29.60
2019-04-04T09:17:49.452Z,29.70
2019-04-04T09:20:21.854Z,29.80
2019-04-04T09:22:53.181Z,29.90
2019-04-04T09:25:24.599Z,29.90
2019-04-04T09:27:56.387Z,30.00
2019-04-04T09:30:27.965Z,30.00
2019-04-04T09:32:59.295Z,30.00
2019-04-04T09:35:30.759Z,29.90
2019-04-04T09:38:02.720Z,29.90
2019-04-04T09:40:34.053Z,29.80
2019-04-04T09:43:05.328Z,29.70
2019-04-04T09:45:36.742Z,29.70
2019-04-04T09:48:08.048Z,29.70
2019-04-04T09:50:39.688Z,29.70
2019-04-04T09:53:11.077Z,29.20
2019-04-04T09:55:42.377Z,29.30
2019-04-04T09:58:14.546Z,29.30
2019-04-04T10:00:47.230Z,29.20
2019-04-04T10:03:18.673Z,29.40
2019-04-04T10:05:50.151Z,29.50
2019-04-04T10:08:22.051Z,29.60
2019-04-04T10:10:56.483Z,29.70
2019-04-04T10:13:27.852Z,29.80
2019-04-04T10:16:00.569Z,29.70
2019-04-04T10:18:31.975Z,29.80
2019-04-04T10:21:11.669Z,29.60
2019-04-04T10:23:36.332Z,29.70
2019-04-04T10:26:09.146Z,29.90
2019-04-04T10:28:40.579Z,29.90
2019-04-04T10:31:12.392Z,29.90
2019-04-04T10:33:43.677Z,29.80
2019-04-04T10:36:14.989Z,29.80
2019-04-04T10:38:46.192Z,29.70
2019-04-04T10:41:17.714Z,30.20
2019-04-04T10:43:49.095Z,29.70
2019-04-04T10:46:20.797Z,30.00
2019-04-04T10:48:52.127Z,30.00
2019-04-04T10:51:23.639Z,29.90
2019-04-04T10:53:55.111Z,29.70
2019-04-04T11:22:39.820Z,30.00
2019-04-04T11:44:22.810Z,30.70
2019-04-04T11:46:54.153Z,30.70
2019-04-04T11:49:25.369Z,30.60
2019-04-04T11:51:56.752Z,30.70
2019-04-04T11:54:28.325Z,30.80
2019-04-04T11:56:59.573Z,30.70
2019-04-04T11:59:31.149Z,30.80
2019-04-04T12:02:04.472Z,30.80
2019-04-04T12:04:35.986Z,31.00
2019-04-04T12:07:07.328Z,30.80
2019-04-04T12:09:39.116Z,31.00
2019-04-04T12:12:10.379Z,31.00
2019-04-04T12:14:41.799Z,30.90
2019-04-04T12:17:13.221Z,31.00
2019-04-04T12:19:45.315Z,31.10
2019-04-04T12:22:16.683Z,31.20
2019-04-04T12:24:48.054Z,31.20
2019-04-04T12:27:22.089Z,31.20
2019-04-04T12:29:53.358Z,31.20
2019-04-04T12:32:25.720Z,31.30
2019-04-04T12:34:57.362Z,31.20
2019-04-04T12:37:28.672Z,31.40
2019-04-04T12:39:59.974Z,31.60
2019-04-04T12:42:32.272Z,31.70
2019-04-04T12:45:05.896Z,31.80
2019-04-04T12:47:38.131Z,32.10
2019-04-04T12:50:09.684Z,31.90
2019-04-04T12:52:42.757Z,32.00
2019-04-04T12:55:14.327Z,31.90
2019-04-04T12:57:47.271Z,31.90
2019-04-04T13:00:18.876Z,32.00
2019-04-04T13:02:51.695Z,32.00
2019-04-04T13:05:22.977Z,32.10
2019-04-04T13:07:54.295Z,32.10
2019-04-04T13:10:32.986Z,32.10
2019-04-04T13:13:02.688Z,32.10
2019-04-04T13:15:34.184Z,32.30
2019-04-04T13:18:05.664Z,32.30
2019-04-04T13:20:37.061Z,32.30
2019-04-04T13:23:08.463Z,32.30
2019-04-04T13:25:39.832Z,32.50
2019-04-04T13:28:13.020Z,32.50
2019-04-04T13:30:44.557Z,32.50
2019-04-04T13:33:15.960Z,32.70
2019-04-04T13:35:48.182Z,32.80
2019-04-04T13:38:19.473Z,33.00
2019-04-04T13:40:50.845Z,33.20
2019-04-04T13:43:22.563Z,32.90
2019-04-04T13:45:55.475Z,32.80
2019-04-04T13:48:26.947Z,32.60
2019-04-04T13:50:58.326Z,32.10
2019-04-04T13:53:29.737Z,32.10
2019-04-04T13:56:01.150Z,32.00
2019-04-04T13:58:32.422Z,31.70
2019-04-04T14:01:03.770Z,31.50
2019-04-04T14:03:35.252Z,31.30
2019-04-04T14:06:06.754Z,31.40
2019-04-04T14:08:40.117Z,31.40
2019-04-04T14:11:11.257Z,31.30
2019-04-04T14:13:43.072Z,31.40
2019-04-04T14:16:14.296Z,31.30
2019-04-04T14:18:45.857Z,31.00
2019-04-04T14:21:17.204Z,31.00
2019-04-04T14:23:51.946Z,31.20
2019-04-04T14:26:21.683Z,31.30
2019-04-04T14:28:54.192Z,31.20
2019-04-04T14:31:25.593Z,30.90
2019-04-04T14:33:57.372Z,31.00
2019-04-04T14:36:28.783Z,30.90
2019-04-04T14:39:00.138Z,31.20
2019-04-04T14:41:31.924Z,31.30
2019-04-04T14:44:03.320Z,31.50
2019-04-04T14:46:34.771Z,31.60
2019-04-04T14:49:06.150Z,31.70
2019-04-04T14:51:40.203Z,31.80
2019-04-04T14:54:11.678Z,31.80
2019-04-04T14:56:43.210Z,32.00
2019-04-04T14:59:14.787Z,32.00
2019-04-04T15:01:46.238Z,32.20
2019-04-04T15:04:19.300Z,32.20
2019-04-04T15:06:50.798Z,32.30
2019-04-04T15:09:22.113Z,32.50
2019-04-04T15:11:53.504Z,32.60
2019-04-04T15:14:25.356Z,32.70
2019-04-04T15:16:57.220Z,32.70
2019-04-04T15:19:30.839Z,32.80
2019-04-04T15:22:03.797Z,32.90
2019-04-04T15:24:35.650Z,32.90
2019-04-04T15:27:07.014Z,33.10
2019-04-04T15:29:38.612Z,33.20
2019-04-04T15:32:09.951Z,33.30
2019-04-04T15:34:41.473Z,33.50
2019-04-04T15:37:12.958Z,33.60
2019-04-04T15:39:44.563Z,33.80
2019-04-04T15:42:16.046Z,33.90
2019-04-04T15:44:47.416Z,34.10
2019-04-04T15:47:19.038Z,34.10
2019-04-04T15:49:50.412Z,34.30
2019-04-04T15:52:21.718Z,34.20
2019-04-04T15:54:53.209Z,34.30
2019-04-04T15:57:24.727Z,34.40
2019-04-04T15:59:56.238Z,34.50
2019-04-04T16:02:27.517Z,34.50
2019-04-04T16:04:59.021Z,34.60
2019-04-04T16:07:30.660Z,34.80
2019-04-04T16:10:01.972Z,34.90
2019-04-04T16:12:33.363Z,35.00
2019-04-04T16:15:05.011Z,35.10
2019-04-04T16:17:36.395Z,35.10
2019-04-04T16:20:09.391Z,35.60
2019-04-04T16:22:44.729Z,35.50
2019-04-04T16:25:16.045Z,35.50
2019-04-04T16:27:47.334Z,35.90
2019-04-04T16:30:18.788Z,35.90
2019-04-04T16:32:50.067Z,35.90
2019-04-04T16:35:22.026Z,36.20
2019-04-04T16:37:54.353Z,36.30
2019-04-04T16:40:25.583Z,36.30
2019-04-04T16:42:57.152Z,36.20
2019-04-04T16:45:28.485Z,36.30
2019-04-04T16:47:59.861Z,36.30
2019-04-04T16:50:31.329Z,36.40
2019-04-04T16:53:03.672Z,36.50
2019-04-04T16:55:35.484Z,36.60
2019-04-04T16:58:09.506Z,36.70
2019-04-04T17:00:43.333Z,36.90
2019-04-04T17:03:14.748Z,37.20
2019-04-04T17:05:53.265Z,37.40
2019-04-04T17:08:21.964Z,37.60
2019-04-04T17:10:55.078Z,37.60
2019-04-04T17:13:29.662Z,37.80
2019-04-04T17:16:01.262Z,37.90
2019-04-04T17:18:34.518Z,38.00
2019-04-04T17:21:07.076Z,38.10
2019-04-04T17:23:40.373Z,38.20
2019-04-04T17:26:12.213Z,38.20
2019-04-04T17:28:44.661Z,38.40
2019-04-04T17:31:15.977Z,38.50
2019-04-04T17:33:47.344Z,38.60
2019-04-04T17:36:21.235Z,38.80
2019-04-04T17:38:54.829Z,38.90
2019-04-04T17:41:25.497Z,39.00
2019-04-04T17:43:56.897Z,39.00
2019-04-04T17:46:29.805Z,39.20
2019-04-04T17:49:02.209Z,39.40
2019-04-04T17:51:34.447Z,39.60
2019-04-04T17:54:07.110Z,39.60
2019-04-04T17:56:41.221Z,39.70
2019-04-04T17:59:12.801Z,39.70
2019-04-04T18:01:44.356Z,39.70
2019-04-04T18:04:15.998Z,39.80
2019-04-04T18:06:47.427Z,39.80
2019-04-04T18:09:30.947Z,39.80
2019-04-04T18:11:52.781Z,39.80
2019-04-04T18:14:24.184Z,39.80
2019-04-04T18:16:55.831Z,39.80
2019-04-04T18:19:27.368Z,39.70
2019-04-04T18:21:59.081Z,39.70
2019-04-04T18:24:30.419Z,39.80
2019-04-04T18:27:01.784Z,39.90
2019-04-04T18:29:33.296Z,39.80
2019-04-04T18:32:04.800Z,39.90
2019-04-04T18:34:36.270Z,39.80
2019-04-04T18:37:07.984Z,39.80
2019-04-04T18:39:39.376Z,39.70
2019-04-04T18:42:10.811Z,39.70
2019-04-04T18:44:42.526Z,39.70
2019-04-04T18:47:13.907Z,39.80
2019-04-04T18:49:45.312Z,39.70
2019-04-04T18:52:16.744Z,39.70
2019-04-04T18:54:48.139Z,39.70
2019-04-04T18:57:19.348Z,39.80
2019-04-04T18:59:50.655Z,39.80
2019-04-04T19:02:22.068Z,39.90
2019-04-04T19:04:53.386Z,39.90
2019-04-04T19:07:24.731Z,39.90
2019-04-04T19:09:56.160Z,40.00
2019-04-04T19:12:28.102Z,39.90
2019-04-04T19:14:59.904Z,40.00
2019-04-04T19:17:35.825Z,40.10
2019-04-04T19:20:10.186Z,40.20
2019-04-04T19:22:46.676Z,40.90
2019-04-04T19:25:18.664Z,40.30
2019-04-04T19:27:50.500Z,40.30
2019-04-04T19:30:22.076Z,40.30
2019-04-04T19:32:53.564Z,40.40
2019-04-04T19:35:24.983Z,40.60
2019-04-04T19:38:00.411Z,40.60
2019-04-04T19:40:30.412Z,40.60
2019-04-04T19:43:01.777Z,40.80
2019-04-04T19:45:34.508Z,41.00
2019-04-04T19:48:08.747Z,41.00
2019-04-04T19:50:43.886Z,41.10
2019-04-04T19:53:16.264Z,41.10
2019-04-04T19:55:47.610Z,41.20
2019-04-04T19:58:19.111Z,41.30
2019-04-04T20:00:50.586Z,41.50
2019-04-04T20:03:22.197Z,41.60
2019-04-04T20:05:53.518Z,41.50
2019-04-04T20:08:28.135Z,41.70
2019-04-04T20:11:02.450Z,41.80
2019-04-04T20:13:34.542Z,41.80
2019-04-04T20:16:05.821Z,41.90
2019-04-04T20:18:41.358Z,42.10
2019-04-04T20:21:14.868Z,42.00
2019-04-04T20:23:46.221Z,42.10
2019-04-04T20:26:18.657Z,42.20
2019-04-04T20:28:51.318Z,42.20
2019-04-04T20:31:22.596Z,42.30
2019-04-04T20:34:01.417Z,42.40
2019-04-04T20:36:27.059Z,42.50
2019-04-04T21:16:04.614Z,43.60
2019-04-04T21:18:36.496Z,43.60
2019-04-04T21:21:07.925Z,43.60
2019-04-04T22:23:47.915Z,45.80
2019-04-04T22:26:19.218Z,46.00
2019-04-04T22:28:50.931Z,46.20
2019-04-04T22:31:22.441Z,46.30
2019-04-04T22:33:54.073Z,46.50
2019-04-04T22:36:26.421Z,46.70
2019-04-04T22:38:57.996Z,46.80
2019-04-04T22:41:29.384Z,46.90
2019-04-04T22:44:03.748Z,47.10
2019-04-04T22:46:34.583Z,47.30
2019-04-04T22:49:06.090Z,47.40
2019-04-04T22:51:37.702Z,47.50
2019-04-04T22:54:09.184Z,47.70
2019-04-04T22:56:40.649Z,47.80
2019-04-04T22:59:12.445Z,47.90
2019-04-04T23:01:43.757Z,48.10
2019-04-04T23:04:15.393Z,48.30
2019-04-04T23:06:46.874Z,48.30
2019-04-04T23:09:18.542Z,48.30
2019-04-04T23:11:50.132Z,48.40
2019-04-04T23:14:21.946Z,48.70
2019-04-04T23:16:53.251Z,48.80
